sensor_id;sensor_type;location;lat;lon;timestamp;pressure;altitude;pressure_sealevel;temperature;humidity
63204;BME280;49297;43.210;27.914;2022-12-26T00:01:33;102240.03;;;6.76;74.13
63204;BME280;49297;43.210;27.914;2022-12-26T00:03:59;102246.28;;;6.73;74.20
63204;BME280;49297;43.210;27.914;2022-12-26T00:06:27;102250.69;;;6.73;73.76
63204;BME280;49297;43.210;27.914;2022-12-26T00:08:54;102251.59;;;6.72;74.13
63204;BME280;49297;43.210;27.914;2022-12-26T00:11:21;102256.88;;;6.72;74.02
63204;BME280;49297;43.210;27.914;2022-12-26T00:13:59;102260.38;;;6.72;74.14
63204;BME280;49297;43.210;27.914;2022-12-26T00:16:26;102262.00;;;6.75;74.17
63204;BME280;49297;43.210;27.914;2022-12-26T00:18:53;102260.97;;;6.77;73.77
63204;BME280;49297;43.210;27.914;2022-12-26T00:21:19;102264.47;;;6.78;73.75
63204;BME280;49297;43.210;27.914;2022-12-26T00:23:46;102267.03;;;6.79;73.56
63204;BME280;49297;43.210;27.914;2022-12-26T00:26:19;102277.56;;;6.79;73.81
63204;BME280;49297;43.210;27.914;2022-12-26T00:28:46;102280.13;;;6.81;73.57
63204;BME280;49297;43.210;27.914;2022-12-26T00:31:16;102285.47;;;6.79;73.07
63204;BME280;49297;43.210;27.914;2022-12-26T00:33:42;102285.47;;;6.79;73.41
63204;BME280;49297;43.210;27.914;2022-12-26T00:36:20;102282.91;;;6.78;73.41
63204;BME280;49297;43.210;27.914;2022-12-26T00:38:47;102280.34;;;6.76;73.53
63204;BME280;49297;43.210;27.914;2022-12-26T00:41:14;102281.25;;;6.75;73.74
63204;BME280;49297;43.210;27.914;2022-12-26T00:43:40;102288.44;;;6.72;73.57
63204;BME280;49297;43.210;27.914;2022-12-26T00:46:06;102291.09;;;6.72;74.01
63204;BME280;49297;43.210;27.914;2022-12-26T00:48:32;102285.91;;;6.70;74.01
63204;BME280;49297;43.210;27.914;2022-12-26T00:50:59;102291.25;;;6.69;74.64
63204;BME280;49297;43.210;27.914;2022-12-26T00:53:25;102294.66;;;6.71;74.11
63204;BME280;49297;43.210;27.914;2022-12-26T00:55:51;102292.16;;;6.67;74.20
63204;BME280;49297;43.210;27.914;2022-12-26T00:58:21;102299.22;;;6.67;74.27
63204;BME280;49297;43.210;27.914;2022-12-26T01:00:47;102302.91;;;6.63;74.57
63204;BME280;49297;43.210;27.914;2022-12-26T01:03:14;102293.69;;;6.54;74.98
63204;BME280;49297;43.210;27.914;2022-12-26T01:05:48;102287.72;;;6.51;75.10
63204;BME280;49297;43.210;27.914;2022-12-26T01:08:15;102294.75;;;6.50;75.39
63204;BME280;49297;43.210;27.914;2022-12-26T01:10:42;102286.91;;;6.48;75.24
63204;BME280;49297;43.210;27.914;2022-12-26T01:13:08;102296.53;;;6.50;75.68
63204;BME280;49297;43.210;27.914;2022-12-26T01:15:34;102292.34;;;6.45;75.49
63204;BME280;49297;43.210;27.914;2022-12-26T01:18:00;102289.63;;;6.47;75.54
63204;BME280;49297;43.210;27.914;2022-12-26T01:20:27;102279.19;;;6.45;75.75
63204;BME280;49297;43.210;27.914;2022-12-26T01:22:53;102277.47;;;6.44;75.94
63204;BME280;49297;43.210;27.914;2022-12-26T01:25:19;102279.25;;;6.44;75.88
63204;BME280;49297;43.210;27.914;2022-12-26T01:27:46;102290.63;;;6.44;75.82
63204;BME280;49297;43.210;27.914;2022-12-26T01:30:12;102301.22;;;6.43;75.73
63204;BME280;49297;43.210;27.914;2022-12-26T01:32:38;102294.34;;;6.40;75.44
63204;BME280;49297;43.210;27.914;2022-12-26T01:35:04;102286.53;;;6.39;75.47
63204;BME280;49297;43.210;27.914;2022-12-26T01:37:30;102286.66;;;6.36;75.84
63204;BME280;49297;43.210;27.914;2022-12-26T01:39:55;102291.06;;;6.35;75.82
63204;BME280;49297;43.210;27.914;2022-12-26T01:42:23;102288.44;;;6.35;75.65
63204;BME280;49297;43.210;27.914;2022-12-26T01:55:48;102283.13;;;6.37;74.49
63204;BME280;49297;43.210;27.914;2022-12-26T01:58:22;102279.59;;;6.36;74.17
63204;BME280;49297;43.210;27.914;2022-12-26T02:00:50;102275.34;;;6.34;73.42
63204;BME280;49297;43.210;27.914;2022-12-26T02:03:16;102287.50;;;6.36;73.14
63204;BME280;49297;43.210;27.914;2022-12-26T02:06:01;102295.38;;;6.36;73.23
63204;BME280;49297;43.210;27.914;2022-12-26T02:08:30;102298.84;;;6.38;72.67
63204;BME280;49297;43.210;27.914;2022-12-26T02:13:35;102308.47;;;6.38;72.32
63204;BME280;49297;43.210;27.914;2022-12-26T02:16:03;102319.16;;;6.35;72.41
63204;BME280;49297;43.210;27.914;2022-12-26T02:18:30;102312.63;;;6.24;72.56
63204;BME280;49297;43.210;27.914;2022-12-26T02:29:20;102325.63;;;6.08;73.02
63204;BME280;49297;43.210;27.914;2022-12-26T02:40:16;102314.31;;;6.06;72.82
63204;BME280;49297;43.210;27.914;2022-12-26T02:45:37;102314.44;;;6.03;72.88
63204;BME280;49297;43.210;27.914;2022-12-26T02:48:45;102314.50;;;6.02;73.34
63204;BME280;49297;43.210;27.914;2022-12-26T02:54:25;102316.63;;;5.94;73.57
63204;BME280;49297;43.210;27.914;2022-12-26T02:57:12;102315.03;;;5.89;73.84
63204;BME280;49297;43.210;27.914;2022-12-26T03:08:47;102322.00;;;5.70;75.91
63204;BME280;49297;43.210;27.914;2022-12-26T03:11:39;102329.44;;;5.60;76.31
63204;BME280;49297;43.210;27.914;2022-12-26T03:14:29;102318.22;;;5.57;76.83
63204;BME280;49297;43.210;27.914;2022-12-26T03:17:01;102314.94;;;5.51;77.34
63204;BME280;49297;43.210;27.914;2022-12-26T03:19:57;102321.25;;;5.47;77.43
63204;BME280;49297;43.210;27.914;2022-12-26T03:22:36;102321.31;;;5.46;77.18
63204;BME280;49297;43.210;27.914;2022-12-26T03:25:49;102322.09;;;5.48;77.09
63204;BME280;49297;43.210;27.914;2022-12-26T03:28:12;102316.13;;;5.44;77.36
63204;BME280;49297;43.210;27.914;2022-12-26T03:30:38;102317.22;;;5.39;76.55
63204;BME280;49297;43.210;27.914;2022-12-26T03:33:23;102314.72;;;5.36;77.02
63204;BME280;49297;43.210;27.914;2022-12-26T03:36:40;102312.22;;;5.32;76.91
63204;BME280;49297;43.210;27.914;2022-12-26T03:42:36;102320.09;;;5.32;76.82
63204;BME280;49297;43.210;27.914;2022-12-26T03:46:16;102308.88;;;5.29;76.30
63204;BME280;49297;43.210;27.914;2022-12-26T03:49:14;102302.59;;;5.33;76.73
63204;BME280;49297;43.210;27.914;2022-12-26T03:54:55;102311.19;;;5.37;76.69
63204;BME280;49297;43.210;27.914;2022-12-26T03:57:49;102299.03;;;5.34;76.46
63204;BME280;49297;43.210;27.914;2022-12-26T04:00:35;102302.50;;;5.34;76.79
63204;BME280;49297;43.210;27.914;2022-12-26T04:03:23;102311.25;;;5.35;76.69
63204;BME280;49297;43.210;27.914;2022-12-26T04:06:17;102300.88;;;5.32;76.64
63204;BME280;49297;43.210;27.914;2022-12-26T04:09:33;102312.44;;;5.28;76.68
63204;BME280;49297;43.210;27.914;2022-12-26T04:12:23;102323.06;;;5.25;76.91
63204;BME280;49297;43.210;27.914;2022-12-26T04:15:25;102320.59;;;5.20;76.84
63204;BME280;49297;43.210;27.914;2022-12-26T04:18:19;102314.44;;;5.21;77.23
63204;BME280;49297;43.210;27.914;2022-12-26T04:21:54;102321.41;;;5.22;77.07
63204;BME280;49297;43.210;27.914;2022-12-26T04:24:23;102318.84;;;5.21;77.40
63204;BME280;49297;43.210;27.914;2022-12-26T04:27:22;102317.97;;;5.20;77.13
63204;BME280;49297;43.210;27.914;2022-12-26T04:30:10;102322.50;;;5.17;77.34
63204;BME280;49297;43.210;27.914;2022-12-26T04:32:54;102332.22;;;5.14;77.18
63204;BME280;49297;43.210;27.914;2022-12-26T04:35:54;102326.38;;;5.08;76.69
63204;BME280;49297;43.210;27.914;2022-12-26T04:38:45;102321.06;;;5.09;76.81
63204;BME280;49297;43.210;27.914;2022-12-26T04:41:32;102321.78;;;5.13;77.11
63204;BME280;49297;43.210;27.914;2022-12-26T04:44:18;102328.53;;;5.19;77.10
63204;BME280;49297;43.210;27.914;2022-12-26T04:46:51;102333.63;;;5.23;77.08
63204;BME280;49297;43.210;27.914;2022-12-26T04:49:17;102339.59;;;5.27;76.81
63204;BME280;49297;43.210;27.914;2022-12-26T04:52:05;102338.69;;;5.28;76.64
63204;BME280;49297;43.210;27.914;2022-12-26T04:54:32;102347.41;;;5.28;76.60
63204;BME280;49297;43.210;27.914;2022-12-26T04:56:58;102361.53;;;5.26;76.34
63204;BME280;49297;43.210;27.914;2022-12-26T04:59:24;102366.97;;;5.21;76.50
63204;BME280;49297;43.210;27.914;2022-12-26T05:01:50;102375.03;;;5.17;75.89
63204;BME280;49297;43.210;27.914;2022-12-26T05:04:34;102378.97;;;5.06;75.90
63204;BME280;49297;43.210;27.914;2022-12-26T05:07:21;102385.16;;;5.04;76.46
63204;BME280;49297;43.210;27.914;2022-12-26T05:10:08;102389.75;;;4.99;76.78
63204;BME280;49297;43.210;27.914;2022-12-26T05:12:35;102388.91;;;4.98;76.17
63204;BME280;49297;43.210;27.914;2022-12-26T05:15:00;102387.13;;;4.99;76.09
63204;BME280;49297;43.210;27.914;2022-12-26T05:17:26;102394.38;;;4.92;76.57
63204;BME280;49297;43.210;27.914;2022-12-26T05:20:11;102397.09;;;4.90;76.46
63204;BME280;49297;43.210;27.914;2022-12-26T05:22:55;102398.84;;;4.90;76.33
63204;BME280;49297;43.210;27.914;2022-12-26T05:25:42;102401.66;;;4.85;75.81
63204;BME280;49297;43.210;27.914;2022-12-26T05:28:28;102411.38;;;4.83;75.95
63204;BME280;49297;43.210;27.914;2022-12-26T05:31:11;102413.31;;;4.78;76.22
63204;BME280;49297;43.210;27.914;2022-12-26T05:33:38;102414.25;;;4.75;76.41
63204;BME280;49297;43.210;27.914;2022-12-26T05:36:25;102418.91;;;4.69;76.18
63204;BME280;49297;43.210;27.914;2022-12-26T05:38:52;102413.19;;;4.57;76.39
63204;BME280;49297;43.210;27.914;2022-12-26T05:41:21;102418.63;;;4.53;76.06
63204;BME280;49297;43.210;27.914;2022-12-26T05:43:48;102423.13;;;4.49;76.23
63204;BME280;49297;43.210;27.914;2022-12-26T05:46:14;102425.84;;;4.46;76.81
63204;BME280;49297;43.210;27.914;2022-12-26T05:48:39;102419.97;;;4.39;76.47
63204;BME280;49297;43.210;27.914;2022-12-26T05:51:06;102419.22;;;4.36;76.71
63204;BME280;49297;43.210;27.914;2022-12-26T05:53:32;102421.75;;;4.39;76.42
63204;BME280;49297;43.210;27.914;2022-12-26T05:56:08;102427.09;;;4.36;76.74
63204;BME280;49297;43.210;27.914;2022-12-26T05:58:35;102422.97;;;4.29;76.58
63204;BME280;49297;43.210;27.914;2022-12-26T06:01:13;102422.19;;;4.27;76.47
63204;BME280;49297;43.210;27.914;2022-12-26T06:03:40;102422.13;;;4.28;77.02
63204;BME280;49297;43.210;27.914;2022-12-26T06:06:10;102419.34;;;4.33;76.72
63204;BME280;49297;43.210;27.914;2022-12-26T06:08:35;102424.63;;;4.31;76.66
63204;BME280;49297;43.210;27.914;2022-12-26T06:11:05;102421.91;;;4.34;76.64
63204;BME280;49297;43.210;27.914;2022-12-26T06:13:32;102414.09;;;4.33;76.26
63204;BME280;49297;43.210;27.914;2022-12-26T06:15:58;102419.50;;;4.28;76.63
63204;BME280;49297;43.210;27.914;2022-12-26T06:18:25;102410.56;;;4.34;76.24
63204;BME280;49297;43.210;27.914;2022-12-26T06:20:51;102411.22;;;4.41;76.39
63204;BME280;49297;43.210;27.914;2022-12-26T06:23:17;102404.03;;;4.46;76.32
63204;BME280;49297;43.210;27.914;2022-12-26T06:25:42;102412.63;;;4.49;75.83
63204;BME280;49297;43.210;27.914;2022-12-26T06:28:08;102413.47;;;4.50;75.75
63204;BME280;49297;43.210;27.914;2022-12-26T06:30:34;102418.72;;;4.50;75.49
63204;BME280;49297;43.210;27.914;2022-12-26T06:33:00;102423.72;;;4.56;75.60
63204;BME280;49297;43.210;27.914;2022-12-26T06:35:26;102417.34;;;4.63;75.69
63204;BME280;49297;43.210;27.914;2022-12-26T06:37:51;102407.59;;;4.67;74.88
63204;BME280;49297;43.210;27.914;2022-12-26T06:40:17;102406.69;;;4.68;75.29
63204;BME280;49297;43.210;27.914;2022-12-26T06:42:44;102420.78;;;4.65;74.95
63204;BME280;49297;43.210;27.914;2022-12-26T06:45:10;102419.06;;;4.64;74.79
63204;BME280;49297;43.210;27.914;2022-12-26T06:47:36;102416.50;;;4.63;75.30
63204;BME280;49297;43.210;27.914;2022-12-26T06:50:01;102421.63;;;4.66;75.08
63204;BME280;49297;43.210;27.914;2022-12-26T06:52:27;102418.22;;;4.64;74.93
63204;BME280;49297;43.210;27.914;2022-12-26T06:54:53;102420.66;;;4.68;75.58
63204;BME280;49297;43.210;27.914;2022-12-26T06:57:19;102425.78;;;4.71;75.17
63204;BME280;49297;43.210;27.914;2022-12-26T06:59:45;102428.41;;;4.71;75.37
63204;BME280;49297;43.210;27.914;2022-12-26T07:02:11;102431.78;;;4.75;75.17
63204;BME280;49297;43.210;27.914;2022-12-26T07:04:36;102432.41;;;4.82;75.13
63204;BME280;49297;43.210;27.914;2022-12-26T07:07:02;102428.69;;;4.87;74.36
63204;BME280;49297;43.210;27.914;2022-12-26T07:09:28;102433.84;;;4.90;73.94
63204;BME280;49297;43.210;27.914;2022-12-26T07:11:54;102447.56;;;4.97;74.28
63204;BME280;49297;43.210;27.914;2022-12-26T07:14:20;102437.88;;;4.99;74.25
63204;BME280;49297;43.210;27.914;2022-12-26T07:16:46;102435.78;;;5.07;74.26
63204;BME280;49297;43.210;27.914;2022-12-26T07:19:14;102449.44;;;5.17;74.07
63204;BME280;49297;43.210;27.914;2022-12-26T07:21:40;102441.06;;;5.29;73.50
63204;BME280;49297;43.210;27.914;2022-12-26T07:24:16;102447.41;;;5.46;73.35
63204;BME280;49297;43.210;27.914;2022-12-26T07:26:43;102445.91;;;5.61;72.93
63204;BME280;49297;43.210;27.914;2022-12-26T07:29:10;102440.09;;;5.75;73.22
63204;BME280;49297;43.210;27.914;2022-12-26T07:31:38;102439.56;;;5.87;72.79
63204;BME280;49297;43.210;27.914;2022-12-26T07:34:04;102440.00;;;5.98;72.80
63204;BME280;49297;43.210;27.914;2022-12-26T07:36:30;102451.06;;;6.06;72.46
63204;BME280;49297;43.210;27.914;2022-12-26T07:38:55;102463.00;;;6.14;72.42
63204;BME280;49297;43.210;27.914;2022-12-26T07:41:22;102452.28;;;6.18;72.34
63204;BME280;49297;43.210;27.914;2022-12-26T07:44:08;102451.44;;;6.18;71.67
63204;BME280;49297;43.210;27.914;2022-12-26T07:46:34;102455.06;;;6.15;71.36
63204;BME280;49297;43.210;27.914;2022-12-26T07:49:00;102450.47;;;6.20;71.55
63204;BME280;49297;43.210;27.914;2022-12-26T07:51:27;102450.25;;;6.25;72.16
63204;BME280;49297;43.210;27.914;2022-12-26T07:53:53;102458.72;;;6.32;71.91
63204;BME280;49297;43.210;27.914;2022-12-26T07:56:19;102463.94;;;6.33;72.11
63204;BME280;49297;43.210;27.914;2022-12-26T07:58:50;102451.97;;;6.26;72.13
63204;BME280;49297;43.210;27.914;2022-12-26T08:01:16;102451.09;;;6.25;72.34
63204;BME280;49297;43.210;27.914;2022-12-26T08:03:42;102455.50;;;6.25;72.49
63204;BME280;49297;43.210;27.914;2022-12-26T08:06:09;102466.16;;;6.22;72.75
63204;BME280;49297;43.210;27.914;2022-12-26T08:08:35;102460.81;;;6.23;72.72
63204;BME280;49297;43.210;27.914;2022-12-26T08:11:03;102460.75;;;6.25;72.76
63204;BME280;49297;43.210;27.914;2022-12-26T08:13:30;102464.06;;;6.30;72.79
63204;BME280;49297;43.210;27.914;2022-12-26T08:15:56;102450.84;;;6.32;72.65
63204;BME280;49297;43.210;27.914;2022-12-26T08:18:23;102453.47;;;6.32;72.52
63204;BME280;49297;43.210;27.914;2022-12-26T08:20:49;102451.50;;;6.37;72.34
63204;BME280;49297;43.210;27.914;2022-12-26T08:23:15;102456.75;;;6.37;72.19
63204;BME280;49297;43.210;27.914;2022-12-26T08:25:41;102464.59;;;6.38;71.93
63204;BME280;49297;43.210;27.914;2022-12-26T08:28:07;102464.22;;;6.46;72.14
63204;BME280;49297;43.210;27.914;2022-12-26T08:30:33;102455.13;;;6.53;71.86
63204;BME280;49297;43.210;27.914;2022-12-26T08:32:58;102452.09;;;6.62;72.19
63204;BME280;49297;43.210;27.914;2022-12-26T08:35:24;102448.13;;;6.73;72.47
63204;BME280;49297;43.210;27.914;2022-12-26T08:37:50;102445.75;;;6.85;72.32
63204;BME280;49297;43.210;27.914;2022-12-26T08:40:16;102439.22;;;6.94;72.05
63204;BME280;49297;43.210;27.914;2022-12-26T08:42:42;102428.47;;;6.99;71.28
63204;BME280;49297;43.210;27.914;2022-12-26T08:45:08;102424.53;;;7.08;71.43
63204;BME280;49297;43.210;27.914;2022-12-26T08:47:34;102417.91;;;7.18;70.69
63204;BME280;49297;43.210;27.914;2022-12-26T08:50:00;102418.25;;;7.29;70.94
63204;BME280;49297;43.210;27.914;2022-12-26T08:52:26;102415.38;;;7.34;70.22
63204;BME280;49297;43.210;27.914;2022-12-26T08:54:52;102419.41;;;7.41;69.24
63204;BME280;49297;43.210;27.914;2022-12-26T08:57:17;102415.53;;;7.48;68.57
63204;BME280;49297;43.210;27.914;2022-12-26T08:59:44;102412.44;;;7.57;68.43
63204;BME280;49297;43.210;27.914;2022-12-26T09:02:10;102424.31;;;7.66;67.25
63204;BME280;49297;43.210;27.914;2022-12-26T09:04:36;102413.41;;;7.74;67.11
63204;BME280;49297;43.210;27.914;2022-12-26T09:07:03;102407.03;;;7.78;66.58
63204;BME280;49297;43.210;27.914;2022-12-26T09:09:28;102405.94;;;7.82;65.54
63204;BME280;49297;43.210;27.914;2022-12-26T09:11:54;102402.94;;;7.90;65.25
63204;BME280;49297;43.210;27.914;2022-12-26T09:14:20;102389.41;;;7.96;65.10
63204;BME280;49297;43.210;27.914;2022-12-26T09:16:46;102385.53;;;8.03;64.69
63204;BME280;49297;43.210;27.914;2022-12-26T09:19:14;102381.53;;;8.12;63.37
63204;BME280;49297;43.210;27.914;2022-12-26T09:21:43;102372.22;;;8.22;63.52
63204;BME280;49297;43.210;27.914;2022-12-26T09:24:16;102366.38;;;8.33;62.88
63204;BME280;49297;43.210;27.914;2022-12-26T09:26:43;102356.09;;;8.44;62.54
63204;BME280;49297;43.210;27.914;2022-12-26T09:29:12;102357.63;;;8.48;61.82
63204;BME280;49297;43.210;27.914;2022-12-26T09:31:38;102356.34;;;8.55;61.59
63204;BME280;49297;43.210;27.914;2022-12-26T09:34:05;102345.63;;;8.58;60.94
63204;BME280;49297;43.210;27.914;2022-12-26T09:36:34;102350.59;;;8.65;60.57
63204;BME280;49297;43.210;27.914;2022-12-26T09:39:02;102348.28;;;8.74;60.71
63204;BME280;49297;43.210;27.914;2022-12-26T09:47:32;102345.44;;;9.09;59.81
63204;BME280;49297;43.210;27.914;2022-12-26T09:55:56;102336.47;;;9.42;59.22
63204;BME280;49297;43.210;27.914;2022-12-26T09:58:27;102347.34;;;9.52;59.10
63204;BME280;49297;43.210;27.914;2022-12-26T10:01:08;102344.16;;;9.61;59.27
63204;BME280;49297;43.210;27.914;2022-12-26T10:03:42;102335.66;;;9.70;59.31
63204;BME280;49297;43.210;27.914;2022-12-26T10:06:20;102330.88;;;9.77;58.74
63204;BME280;49297;43.210;27.914;2022-12-26T10:17:27;102330.56;;;10.10;58.57
63204;BME280;49297;43.210;27.914;2022-12-26T10:20:06;102327.56;;;10.17;58.23
63204;BME280;49297;43.210;27.914;2022-12-26T10:25:42;102332.38;;;10.24;58.23
63204;BME280;49297;43.210;27.914;2022-12-26T10:28:28;102318.09;;;10.27;58.04
63204;BME280;49297;43.210;27.914;2022-12-26T10:31:00;102321.41;;;10.31;58.37
63204;BME280;49297;43.210;27.914;2022-12-26T10:33:41;102316.81;;;10.34;57.75
63204;BME280;49297;43.210;27.914;2022-12-26T10:36:17;102307.69;;;10.38;58.10
63204;BME280;49297;43.210;27.914;2022-12-26T10:38:47;102305.25;;;10.35;57.86
63204;BME280;49297;43.210;27.914;2022-12-26T10:41:22;102301.00;;;10.33;58.23
63204;BME280;49297;43.210;27.914;2022-12-26T10:43:49;102307.16;;;10.33;58.32
63204;BME280;49297;43.210;27.914;2022-12-26T10:46:30;102309.50;;;10.38;58.32
63204;BME280;49297;43.210;27.914;2022-12-26T10:49:02;102314.72;;;10.39;58.25
63204;BME280;49297;43.210;27.914;2022-12-26T10:51:28;102314.81;;;10.38;58.30
63204;BME280;49297;43.210;27.914;2022-12-26T10:53:54;102315.09;;;10.33;58.47
63204;BME280;49297;43.210;27.914;2022-12-26T10:56:21;102307.78;;;10.22;58.17
63204;BME280;49297;43.210;27.914;2022-12-26T10:59:00;102303.34;;;10.23;58.47
63204;BME280;49297;43.210;27.914;2022-12-26T11:01:36;102310.91;;;10.29;58.46
63204;BME280;49297;43.210;27.914;2022-12-26T11:04:05;102305.25;;;10.35;58.58
63204;BME280;49297;43.210;27.914;2022-12-26T11:06:37;102303.47;;;10.36;57.89
63204;BME280;49297;43.210;27.914;2022-12-26T11:09:05;102298.69;;;10.41;58.34
63204;BME280;49297;43.210;27.914;2022-12-26T11:11:35;102285.09;;;10.47;58.04
63204;BME280;49297;43.210;27.914;2022-12-26T11:17:10;102283.56;;;10.57;58.44
63204;BME280;49297;43.210;27.914;2022-12-26T11:19:39;102277.28;;;10.58;58.02
63204;BME280;49297;43.210;27.914;2022-12-26T11:22:22;102273.16;;;10.54;57.70
63204;BME280;49297;43.210;27.914;2022-12-26T11:27:34;102268.69;;;10.55;58.59
63204;BME280;49297;43.210;27.914;2022-12-26T11:30:22;102265.94;;;10.56;58.77
63204;BME280;49297;43.210;27.914;2022-12-26T11:34:07;102266.59;;;10.60;59.57
63204;BME280;49297;43.210;27.914;2022-12-26T11:36:21;102262.03;;;10.62;59.23
63204;BME280;49297;43.210;27.914;2022-12-26T11:39:00;102256.97;;;10.59;59.82
63204;BME280;49297;43.210;27.914;2022-12-26T11:44:18;102252.31;;;10.62;60.06
63204;BME280;49297;43.210;27.914;2022-12-26T11:47:13;102249.53;;;10.64;60.03
63204;BME280;49297;43.210;27.914;2022-12-26T11:50:05;102245.97;;;10.65;59.41
63204;BME280;49297;43.210;27.914;2022-12-26T12:03:27;102245.56;;;10.44;57.81
63204;BME280;49297;43.210;27.914;2022-12-26T12:08:57;102244.72;;;10.43;57.63
63204;BME280;49297;43.210;27.914;2022-12-26T12:14:14;102245.66;;;10.42;57.55
63204;BME280;49297;43.210;27.914;2022-12-26T12:17:18;102239.63;;;10.40;57.61
63204;BME280;49297;43.210;27.914;2022-12-26T12:33:47;102240.28;;;10.29;58.72
63204;BME280;49297;43.210;27.914;2022-12-26T12:39:01;102239.16;;;10.19;60.15
63204;BME280;49297;43.210;27.914;2022-12-26T12:47:06;102248.91;;;10.19;60.88
63204;BME280;49297;43.210;27.914;2022-12-26T12:58:29;102241.09;;;9.88;62.01
63204;BME280;49297;43.210;27.914;2022-12-26T13:01:05;102250.66;;;9.91;62.31
63204;BME280;49297;43.210;27.914;2022-12-26T13:06:32;102244.16;;;9.82;62.33
63204;BME280;49297;43.210;27.914;2022-12-26T13:09:05;102243.50;;;9.79;62.71
63204;BME280;49297;43.210;27.914;2022-12-26T13:11:37;102229.69;;;9.74;63.81
63204;BME280;49297;43.210;27.914;2022-12-26T13:16:45;102234.69;;;9.78;63.65
63204;BME280;49297;43.210;27.914;2022-12-26T13:22:11;102239.78;;;9.81;63.66
63204;BME280;49297;43.210;27.914;2022-12-26T13:24:44;102237.31;;;9.78;64.20
63204;BME280;49297;43.210;27.914;2022-12-26T13:27:34;102239.88;;;9.80;64.42
63204;BME280;49297;43.210;27.914;2022-12-26T13:30:05;102235.56;;;9.79;64.58
63204;BME280;49297;43.210;27.914;2022-12-26T13:32:36;102234.69;;;9.78;65.03
63204;BME280;49297;43.210;27.914;2022-12-26T13:35:02;102238.28;;;9.77;65.43
63204;BME280;49297;43.210;27.914;2022-12-26T13:42:44;102236.88;;;9.71;66.42
63204;BME280;49297;43.210;27.914;2022-12-26T13:51:02;102242.84;;;9.61;67.92
63204;BME280;49297;43.210;27.914;2022-12-26T13:53:32;102241.13;;;9.60;68.27
63204;BME280;49297;43.210;27.914;2022-12-26T13:56:49;102237.63;;;9.59;67.65
63204;BME280;49297;43.210;27.914;2022-12-26T14:01:31;102232.69;;;9.53;68.84
63204;BME280;49297;43.210;27.914;2022-12-26T14:15:21;102235.44;;;9.37;69.38
63204;BME280;49297;43.210;27.914;2022-12-26T14:20:56;102221.84;;;9.29;70.03
63204;BME280;49297;43.210;27.914;2022-12-26T14:29:19;102210.97;;;9.19;71.00
63204;BME280;49297;43.210;27.914;2022-12-26T14:35:05;102196.91;;;9.19;71.68
63204;BME280;49297;43.210;27.914;2022-12-26T14:40:32;102204.00;;;9.18;70.95
63204;BME280;49297;43.210;27.914;2022-12-26T14:50:48;102196.41;;;9.12;71.26
63204;BME280;49297;43.210;27.914;2022-12-26T14:55:56;102193.09;;;9.08;71.52
63204;BME280;49297;43.210;27.914;2022-12-26T14:58:43;102191.50;;;9.06;71.94
63204;BME280;49297;43.210;27.914;2022-12-26T15:09:28;102196.31;;;8.99;71.81
63204;BME280;49297;43.210;27.914;2022-12-26T15:14:56;102192.16;;;8.95;72.41
63204;BME280;49297;43.210;27.914;2022-12-26T15:25:47;102179.66;;;8.83;72.97
63204;BME280;49297;43.210;27.914;2022-12-26T15:31:06;102189.28;;;8.84;73.48
63204;BME280;49297;43.210;27.914;2022-12-26T15:33:39;102185.78;;;8.83;72.93
63204;BME280;49297;43.210;27.914;2022-12-26T15:36:21;102185.78;;;8.83;73.49
63204;BME280;49297;43.210;27.914;2022-12-26T15:42:07;102187.00;;;8.77;73.61
63204;BME280;49297;43.210;27.914;2022-12-26T15:55:04;102181.81;;;8.76;73.61
63204;BME280;49297;43.210;27.914;2022-12-26T16:00:21;102187.84;;;8.78;73.63
63204;BME280;49297;43.210;27.914;2022-12-26T16:05:34;102191.63;;;8.74;73.30
63204;BME280;49297;43.210;27.914;2022-12-26T16:10:40;102194.81;;;8.65;73.92
63204;BME280;49297;43.210;27.914;2022-12-26T16:15:50;102195.72;;;8.64;74.03
63204;BME280;49297;43.210;27.914;2022-12-26T16:18:24;102198.38;;;8.64;73.75
63204;BME280;49297;43.210;27.914;2022-12-26T16:20:51;102197.53;;;8.63;74.19
63204;BME280;49297;43.210;27.914;2022-12-26T16:23:39;102198.53;;;8.61;74.04
63204;BME280;49297;43.210;27.914;2022-12-26T16:26:06;102195.91;;;8.61;73.90
63204;BME280;49297;43.210;27.914;2022-12-26T16:28:40;102200.34;;;8.60;74.15
63204;BME280;49297;43.210;27.914;2022-12-26T16:31:07;102197.88;;;8.57;74.01
63204;BME280;49297;43.210;27.914;2022-12-26T16:33:39;102192.78;;;8.54;73.67
63204;BME280;49297;43.210;27.914;2022-12-26T16:36:14;102199.00;;;8.53;73.76
63204;BME280;49297;43.210;27.914;2022-12-26T16:38:42;102196.34;;;8.53;73.36
63204;BME280;49297;43.210;27.914;2022-12-26T16:41:20;102198.16;;;8.52;73.85
63204;BME280;49297;43.210;27.914;2022-12-26T16:43:47;102194.75;;;8.50;73.64
63204;BME280;49297;43.210;27.914;2022-12-26T16:46:13;102191.44;;;8.47;73.35
63204;BME280;49297;43.210;27.914;2022-12-26T16:48:40;102190.66;;;8.45;73.63
63204;BME280;49297;43.210;27.914;2022-12-26T16:53:51;102193.47;;;8.42;73.52
63204;BME280;49297;43.210;27.914;2022-12-26T16:58:53;102187.41;;;8.39;73.08
63204;BME280;49297;43.210;27.914;2022-12-26T17:01:20;102183.16;;;8.37;72.92
63204;BME280;49297;43.210;27.914;2022-12-26T17:03:53;102191.91;;;8.37;73.12
63204;BME280;49297;43.210;27.914;2022-12-26T17:06:31;102191.91;;;8.37;73.08
63204;BME280;49297;43.210;27.914;2022-12-26T17:09:06;102185.63;;;8.40;73.61
63204;BME280;49297;43.210;27.914;2022-12-26T17:11:36;102181.19;;;8.41;73.50
63204;BME280;49297;43.210;27.914;2022-12-26T17:14:04;102181.97;;;8.43;73.23
63204;BME280;49297;43.210;27.914;2022-12-26T17:16:31;102179.25;;;8.44;72.84
63204;BME280;49297;43.210;27.914;2022-12-26T17:19:17;102172.09;;;8.46;73.51